Terminal Aerodrome Forecast
Issued by NWS

Home | Current Version | Previous Version | Graphics & Text | Print | Product List | Glossary On
Versions: 1 2 3 4 5 6 7 8 9 10 11 12 13 14 15 16 17 18 19 20 21 22 23 24
000
FTUS43 KDLH 161800 AAA
TAFHYR
TAF AMD
KHYR 161844Z 1619/1718 09012G20KT 1/4SM SN FZFG OVC006
      TEMPO 1619/1622 1/2SM SN OVC011
     FM162200 09014G22KT 1/4SM +SN OVC007
     FM170100 04014G22KT 1/4SM +SN OVC007
     FM170600 36015G25KT 1SM -SN OVC007
     FM171000 36015KT 3SM -SN OVC015
     FM171500 36008KT P6SM OVC020=

USA.gov is the U.S. government's official web portal to all federal, state and local government web resources and services.